createdAt,value
2023-04-13T00:00:12.122Z,8.90
2023-04-13T00:02:40.786Z,8.80
2023-04-13T00:05:11.835Z,8.80
2023-04-13T00:07:40.652Z,8.90
2023-04-13T00:10:11.106Z,8.80
2023-04-13T00:12:40.961Z,8.80
2023-04-13T00:15:09.942Z,8.80
2023-04-13T00:17:38.744Z,8.80
2023-04-13T00:20:13.085Z,8.80
2023-04-13T00:22:42.249Z,8.80
2023-04-13T00:25:14.311Z,8.80
2023-04-13T00:27:43.455Z,8.80
2023-04-13T00:30:13.057Z,8.80
2023-04-13T00:32:42.290Z,8.80
2023-04-13T00:35:12.172Z,8.90
2023-04-13T00:37:43.033Z,8.90
2023-04-13T00:40:15.937Z,8.90
2023-04-13T00:42:45.016Z,8.90
2023-04-13T00:45:13.592Z,8.90
2023-04-13T00:47:43.313Z,8.90
2023-04-13T00:50:11.517Z,8.90
2023-04-13T00:52:40.167Z,8.90
2023-04-13T00:55:09.069Z,9.00
2023-04-13T00:57:40.733Z,9.00
2023-04-13T01:00:10.683Z,9.00
2023-04-13T01:02:42.444Z,9.00
2023-04-13T01:05:15.622Z,9.00
2023-04-13T01:07:59.513Z,9.00
2023-04-13T01:10:34.542Z,9.00
2023-04-13T01:13:11.626Z,9.00
2023-04-13T01:15:52.136Z,9.00
2023-04-13T01:18:22.688Z,9.00
2023-04-13T01:20:53.640Z,9.00
2023-04-13T01:23:32.536Z,9.00
2023-04-13T01:26:06.811Z,9.00
2023-04-13T01:28:38.658Z,9.10
2023-04-13T01:31:11.646Z,9.10
2023-04-13T01:33:41.795Z,9.10
2023-04-13T01:36:12.447Z,9.20
2023-04-13T01:38:40.796Z,9.20
2023-04-13T01:41:10.786Z,9.30
2023-04-13T01:43:45.127Z,9.30
2023-04-13T01:46:15.358Z,9.40
2023-04-13T01:49:03.822Z,9.40
2023-04-13T01:51:38.716Z,9.40
2023-04-13T01:54:13.485Z,9.40
2023-04-13T01:56:45.518Z,9.50
2023-04-13T01:59:16.349Z,9.50
2023-04-13T02:01:44.963Z,9.50
2023-04-13T02:04:13.747Z,9.50
2023-04-13T02:06:44.074Z,9.50
2023-04-13T02:09:12.656Z,9.50
2023-04-13T02:11:41.062Z,9.50
2023-04-13T02:14:09.512Z,9.50
2023-04-13T02:16:39.778Z,9.50
2023-04-13T02:19:08.001Z,9.50
2023-04-13T02:21:37.034Z,9.50
2023-04-13T02:24:05.785Z,9.50
2023-04-13T02:26:33.926Z,9.50
2023-04-13T02:29:02.057Z,9.50
2023-04-13T02:31:31.922Z,9.50
2023-04-13T02:34:01.614Z,9.50
2023-04-13T02:36:31.152Z,9.50
2023-04-13T02:39:04.490Z,9.50
2023-04-13T02:41:34.905Z,9.50
2023-04-13T02:44:03.438Z,9.50
2023-04-13T02:46:42.755Z,9.50
2023-04-13T02:49:17.167Z,9.50
2023-04-13T02:51:55.309Z,9.60
2023-04-13T02:54:34.155Z,9.50
2023-04-13T02:57:02.283Z,9.50
2023-04-13T02:59:32.220Z,9.50
2023-04-13T03:02:01.774Z,9.60
2023-04-13T03:04:33.489Z,9.60
2023-04-13T03:07:08.281Z,9.60
2023-04-13T03:09:40.176Z,9.60
2023-04-13T03:12:09.250Z,9.60
2023-04-13T03:14:38.422Z,9.60
2023-04-13T03:17:11.618Z,9.60
2023-04-13T03:19:42.614Z,9.60
2023-04-13T03:22:13.047Z,9.60
2023-04-13T03:24:46.444Z,9.70
2023-04-13T03:27:21.302Z,9.60
2023-04-13T03:29:50.622Z,9.70
2023-04-13T03:32:22.755Z,9.60
2023-04-13T03:34:59.176Z,9.70
2023-04-13T03:37:29.907Z,9.70
2023-04-13T03:40:01.884Z,9.70
2023-04-13T03:42:33.395Z,9.70
2023-04-13T03:45:02.206Z,9.70
2023-04-13T03:47:30.579Z,9.70
2023-04-13T03:49:59.989Z,9.70
2023-04-13T03:52:28.514Z,9.70
2023-04-13T03:55:01.038Z,9.60
2023-04-13T03:57:34.348Z,9.60
2023-04-13T04:00:07.213Z,9.60
2023-04-13T04:03:07.387Z,9.60
2023-04-13T04:05:48.146Z,9.70
2023-04-13T04:08:16.157Z,9.70
2023-04-13T04:10:45.043Z,9.70
2023-04-13T04:13:13.384Z,9.70
2023-04-13T04:15:46.030Z,9.70
2023-04-13T04:18:14.362Z,9.70
2023-04-13T04:20:42.902Z,9.80
2023-04-13T04:23:15.254Z,9.80
2023-04-13T04:25:59.536Z,9.80
2023-04-13T04:28:38.488Z,9.80
2023-04-13T04:31:10.574Z,9.90
2023-04-13T04:33:40.970Z,9.90
2023-04-13T04:36:14.083Z,9.90
2023-04-13T04:38:58.093Z,9.90
2023-04-13T04:41:27.186Z,10.00
2023-04-13T04:44:02.950Z,10.00
2023-04-13T04:46:38.669Z,10.00
2023-04-13T04:49:11.109Z,10.10
2023-04-13T04:51:40.044Z,10.10
2023-04-13T04:54:09.678Z,10.10
2023-04-13T04:56:38.128Z,10.20
2023-04-13T04:59:06.906Z,10.10
2023-04-13T05:01:43.419Z,10.20
2023-04-13T05:04:14.060Z,10.20
2023-04-13T05:06:44.457Z,10.20
2023-04-13T05:09:20.669Z,10.30
2023-04-13T05:11:52.648Z,10.30
2023-04-13T05:14:22.149Z,10.30
2023-04-13T05:16:51.130Z,10.30
2023-04-13T05:19:30.090Z,10.30
2023-04-13T05:22:03.019Z,10.40
2023-04-13T05:24:40.070Z,10.40
2023-04-13T05:27:13.400Z,10.40
2023-04-13T05:29:42.367Z,10.40
2023-04-13T05:32:10.649Z,10.40
2023-04-13T05:34:39.017Z,10.40
2023-04-13T05:37:11.844Z,10.40
2023-04-13T05:39:41.269Z,10.40
2023-04-13T05:42:09.734Z,10.40
2023-04-13T05:44:42.748Z,10.40
2023-04-13T05:47:11.118Z,10.40
2023-04-13T05:49:40.043Z,10.40
2023-04-13T05:52:10.678Z,10.40
2023-04-13T05:54:50.103Z,10.40
2023-04-13T05:57:22.033Z,10.40
2023-04-13T05:59:52.155Z,10.40
2023-04-13T06:02:26.423Z,10.40
2023-04-13T06:04:55.071Z,10.40
2023-04-13T06:07:24.204Z,10.40
2023-04-13T06:09:53.451Z,10.40
2023-04-13T06:12:24.096Z,10.40
2023-04-13T06:14:53.873Z,10.50
2023-04-13T06:17:21.936Z,10.50
2023-04-13T06:19:50.090Z,10.50
2023-04-13T06:22:18.352Z,10.50
2023-04-13T06:24:46.212Z,10.50
2023-04-13T06:27:17.082Z,10.50
2023-04-13T06:29:47.518Z,10.60
2023-04-13T06:32:15.905Z,10.60
2023-04-13T06:34:45.110Z,10.60
2023-04-13T06:37:14.166Z,10.70
2023-04-13T06:39:47.442Z,10.70
2023-04-13T06:42:17.244Z,10.70
2023-04-13T06:45:22.236Z,10.80
2023-04-13T06:47:50.718Z,10.80
2023-04-13T06:50:19.120Z,10.90
2023-04-13T06:52:48.984Z,10.90
2023-04-13T06:55:17.427Z,11.00
2023-04-13T06:57:46.945Z,11.00
2023-04-13T07:00:28.774Z,11.00
2023-04-13T07:02:59.277Z,11.10
2023-04-13T07:05:27.464Z,11.10
2023-04-13T07:08:00.590Z,11.10
2023-04-13T07:10:29.008Z,11.10
2023-04-13T07:13:01.667Z,11.10
2023-04-13T07:15:31.983Z,11.10
2023-04-13T07:18:00.338Z,11.20
2023-04-13T07:20:28.770Z,11.20
2023-04-13T07:22:57.133Z,11.20
2023-04-13T07:25:25.436Z,11.20
2023-04-13T07:27:56.020Z,11.20
2023-04-13T07:30:25.501Z,11.30
2023-04-13T07:32:53.621Z,11.30
2023-04-13T07:35:22.349Z,11.30
2023-04-13T07:37:52.875Z,11.40
2023-04-13T07:40:23.191Z,11.40
2023-04-13T07:42:55.359Z,11.50
2023-04-13T07:45:25.219Z,11.50
2023-04-13T07:47:54.702Z,11.50
2023-04-13T07:50:24.788Z,11.50
2023-04-13T07:52:53.063Z,11.60
2023-04-13T07:55:23.867Z,11.60
2023-04-13T07:57:53.020Z,11.50
2023-04-13T08:00:23.063Z,11.60
2023-04-13T08:02:57.313Z,11.50
2023-04-13T08:05:26.868Z,11.50
2023-04-13T08:07:55.296Z,11.50
2023-04-13T08:10:23.902Z,11.60
2023-04-13T08:12:53.423Z,11.50
2023-04-13T08:15:22.896Z,11.50
2023-04-13T08:17:51.003Z,11.50
2023-04-13T08:20:22.108Z,11.50
2023-04-13T08:22:52.528Z,11.50
2023-04-13T08:25:22.025Z,11.50
2023-04-13T08:27:50.440Z,11.50
2023-04-13T08:30:18.924Z,11.60
2023-04-13T08:33:05.307Z,11.60
2023-04-13T08:35:36.216Z,11.60
2023-04-13T08:38:04.240Z,11.70
2023-04-13T08:40:37.701Z,11.60
2023-04-13T08:43:07.504Z,11.80
2023-04-13T08:45:36.799Z,12.40
2023-04-13T08:48:05.235Z,13.10
2023-04-13T08:50:39.134Z,13.80
2023-04-13T08:53:09.156Z,14.50
2023-04-13T08:55:45.156Z,15.20
2023-04-13T08:58:14.763Z,15.90
2023-04-13T09:00:44.202Z,16.50
2023-04-13T09:03:15.538Z,17.10
2023-04-13T09:05:55.115Z,17.70
2023-04-13T09:08:24.234Z,18.20
2023-04-13T09:10:55.697Z,18.50
2023-04-13T09:13:23.759Z,18.70
2023-04-13T09:15:52.390Z,18.80
2023-04-13T09:18:49.981Z,18.90
2023-04-13T09:21:19.772Z,19.30
2023-04-13T09:23:58.487Z,19.40
2023-04-13T09:26:27.098Z,19.60
2023-04-13T09:28:57.657Z,19.90
2023-04-13T09:31:26.295Z,20.10
2023-04-13T09:33:54.650Z,20.30
2023-04-13T09:36:24.146Z,20.40
2023-04-13T09:38:53.438Z,20.40
2023-04-13T09:41:35.408Z,20.30
2023-04-13T09:44:05.199Z,20.20
2023-04-13T09:46:33.206Z,20.00
2023-04-13T09:49:03.229Z,19.70
2023-04-13T09:51:39.751Z,19.40
2023-04-13T09:54:09.061Z,18.90
2023-04-13T09:56:48.074Z,18.50
2023-04-13T09:59:19.206Z,18.10
2023-04-13T10:01:47.571Z,17.70
2023-04-13T10:04:16.513Z,17.30
2023-04-13T10:06:47.042Z,17.10
2023-04-13T10:09:15.882Z,17.10
2023-04-13T10:11:47.192Z,17.60
2023-04-13T10:14:18.784Z,18.20
2023-04-13T10:17:04.924Z,19.10
2023-04-13T10:19:38.950Z,20.20
2023-04-13T10:22:09.623Z,21.40
2023-04-13T10:24:39.711Z,22.60
2023-04-13T10:27:16.332Z,23.70
2023-04-13T10:29:44.338Z,24.60
2023-04-13T10:32:22.382Z,25.20
2023-04-13T10:34:51.052Z,25.50
2023-04-13T10:37:21.919Z,25.50
2023-04-13T10:39:51.713Z,25.20
2023-04-13T10:42:19.792Z,24.70
2023-04-13T10:44:49.303Z,24.10
2023-04-13T10:47:20.402Z,23.30
2023-04-13T10:49:49.751Z,22.60
2023-04-13T10:52:18.319Z,22.00
2023-04-13T10:54:47.674Z,21.50
2023-04-13T10:57:16.765Z,21.00
2023-04-13T10:59:56.456Z,20.80
2023-04-13T11:02:27.844Z,20.60
2023-04-13T11:04:56.122Z,20.40
2023-04-13T11:07:25.880Z,20.20
2023-04-13T11:10:02.821Z,20.30
2023-04-13T11:12:31.425Z,20.50
2023-04-13T11:14:59.817Z,20.70
2023-04-13T11:17:27.996Z,21.20
2023-04-13T11:19:57.642Z,21.50
2023-04-13T11:22:28.054Z,21.80
2023-04-13T11:25:09.482Z,22.10
2023-04-13T11:27:38.125Z,22.60
2023-04-13T11:30:09.227Z,23.10
2023-04-13T11:32:41.365Z,23.60
2023-04-13T11:35:10.825Z,24.10
2023-04-13T11:37:40.034Z,24.60
2023-04-13T11:40:14.780Z,25.20
2023-04-13T11:42:45.222Z,25.70
2023-04-13T11:45:15.656Z,26.00
2023-04-13T11:47:44.048Z,26.20
2023-04-13T11:50:14.239Z,26.10
2023-04-13T11:52:45.151Z,25.80
2023-04-13T11:55:23.291Z,25.40
2023-04-13T11:57:53.188Z,25.10
2023-04-13T12:00:25.928Z,24.60
2023-04-13T12:05:27.492Z,23.60
2023-04-13T12:07:57.516Z,23.10
2023-04-13T12:10:38.129Z,22.60
2023-04-13T12:16:02.299Z,21.60
2023-04-13T12:18:37.433Z,21.20
2023-04-13T12:21:06.447Z,20.90
2023-04-13T12:23:34.743Z,20.80
2023-04-13T12:26:32.058Z,20.80
2023-04-13T12:28:57.476Z,20.80
2023-04-13T12:31:25.817Z,20.70
2023-04-13T12:33:53.766Z,20.60
2023-04-13T12:36:21.911Z,20.40
2023-04-13T12:38:49.828Z,20.20
2023-04-13T12:41:19.244Z,19.90
2023-04-13T12:43:47.343Z,19.70
2023-04-13T12:46:15.692Z,19.50
2023-04-13T12:48:43.860Z,19.30
2023-04-13T12:51:12.019Z,19.20
2023-04-13T12:53:40.265Z,19.00
2023-04-13T12:56:08.925Z,18.90
2023-04-13T12:58:38.344Z,18.80
2023-04-13T13:01:06.996Z,18.70
2023-04-13T13:03:37.053Z,18.60
2023-04-13T13:06:05.720Z,18.40
2023-04-13T13:08:36.824Z,18.10
2023-04-13T13:11:08.409Z,17.90
2023-04-13T13:13:37.844Z,17.70
2023-04-13T13:16:06.631Z,17.50
2023-04-13T13:18:49.088Z,17.30
2023-04-13T13:21:18.679Z,17.30
2023-04-13T13:23:46.728Z,17.40
2023-04-13T13:28:48.117Z,17.90
2023-04-13T13:31:16.368Z,18.40
2023-04-13T13:33:44.315Z,18.80
2023-04-13T13:36:13.883Z,19.30
2023-04-13T13:38:42.721Z,19.80
2023-04-13T13:41:10.973Z,20.30
2023-04-13T13:43:39.229Z,20.80
2023-04-13T13:46:08.844Z,21.20
2023-04-13T13:48:39.519Z,21.50
2023-04-13T13:51:28.125Z,21.80
2023-04-13T13:53:58.543Z,22.00
2023-04-13T13:56:26.814Z,22.20
2023-04-13T13:58:54.625Z,22.30
2023-04-13T14:01:24.062Z,22.40
2023-04-13T14:03:52.131Z,22.30
2023-04-13T14:06:20.332Z,22.10
2023-04-13T14:08:48.335Z,21.90
2023-04-13T14:11:16.468Z,21.80
2023-04-13T14:13:44.424Z,21.70
2023-04-13T14:16:12.523Z,21.50
2023-04-13T14:18:41.796Z,21.30
2023-04-13T14:21:10.906Z,21.10
2023-04-13T14:23:40.225Z,21.00
2023-04-13T14:26:08.670Z,21.00
2023-04-13T14:28:36.960Z,21.00
2023-04-13T14:31:06.379Z,21.00
2023-04-13T14:33:34.308Z,21.00
2023-04-13T14:36:03.877Z,20.80
2023-04-13T14:38:31.753Z,20.70
2023-04-13T14:40:59.756Z,20.50
2023-04-13T14:43:27.675Z,20.30
2023-04-13T14:45:56.071Z,20.10
2023-04-13T14:48:23.953Z,20.00
2023-04-13T14:50:52.696Z,19.90
2023-04-13T14:53:22.258Z,19.80
2023-04-13T14:55:50.349Z,19.80
2023-04-13T14:58:18.194Z,19.90
2023-04-13T15:00:46.200Z,19.90
2023-04-13T15:03:15.069Z,19.90
2023-04-13T15:05:46.325Z,19.90
2023-04-13T15:08:16.563Z,19.90
2023-04-13T15:10:45.919Z,19.80
2023-04-13T15:13:14.636Z,19.90
2023-04-13T15:15:42.596Z,20.00
2023-04-13T15:18:10.644Z,20.20
2023-04-13T15:20:38.649Z,20.30
2023-04-13T15:23:07.107Z,20.40
2023-04-13T15:25:37.173Z,20.70
2023-04-13T15:28:06.455Z,20.90
2023-04-13T15:30:35.343Z,21.00
2023-04-13T15:33:04.280Z,21.00
2023-04-13T15:35:35.864Z,20.90
2023-04-13T15:38:05.188Z,20.70
2023-04-13T15:40:34.912Z,20.60
2023-04-13T15:43:03.133Z,20.40
2023-04-13T15:45:32.549Z,20.40
2023-04-13T15:48:00.811Z,20.30
2023-04-13T15:50:28.688Z,20.30
2023-04-13T15:52:57.027Z,20.30
2023-04-13T15:55:25.303Z,20.20
2023-04-13T15:57:53.781Z,20.20
2023-04-13T16:00:22.985Z,20.20
2023-04-13T16:02:52.456Z,20.20
2023-04-13T16:05:20.956Z,20.20
2023-04-13T16:07:49.855Z,20.10
2023-04-13T16:10:18.660Z,20.00
2023-04-13T16:12:50.295Z,19.90
2023-04-13T16:15:19.453Z,19.80
2023-04-13T16:17:48.379Z,19.70
2023-04-13T16:20:21.199Z,19.60
2023-04-13T16:22:52.815Z,19.50
2023-04-13T16:25:21.104Z,19.60
2023-04-13T16:27:48.997Z,19.70
2023-04-13T16:30:20.627Z,19.70
2023-04-13T16:32:50.080Z,19.70
2023-04-13T16:35:19.620Z,19.70
2023-04-13T16:37:48.017Z,19.60
2023-04-13T16:40:16.633Z,19.50
2023-04-13T16:42:44.597Z,19.50
2023-04-13T16:45:14.868Z,19.40
2023-04-13T16:47:43.584Z,19.30
2023-04-13T16:50:12.634Z,19.20
2023-04-13T16:52:42.243Z,19.10
2023-04-13T16:55:15.054Z,19.10
2023-04-13T16:57:43.548Z,19.00
2023-04-13T17:00:12.559Z,18.90
2023-04-13T17:02:41.808Z,18.80
2023-04-13T17:05:11.546Z,18.70
2023-04-13T17:07:42.493Z,18.60
2023-04-13T17:10:12.498Z,18.40
2023-04-13T17:12:41.563Z,18.30
2023-04-13T17:15:10.648Z,18.10
2023-04-13T17:17:42.709Z,18.00
2023-04-13T17:20:12.128Z,17.90
2023-04-13T17:22:41.779Z,17.70
2023-04-13T17:25:10.660Z,17.60
2023-04-13T17:27:38.691Z,17.50
2023-04-13T17:30:08.433Z,17.40
2023-04-13T17:32:36.658Z,17.30
2023-04-13T17:35:05.165Z,17.30
2023-04-13T17:37:33.191Z,17.20
2023-04-13T17:40:02.949Z,17.10
2023-04-13T17:42:31.022Z,17.10
2023-04-13T17:44:58.989Z,17.00
2023-04-13T17:47:27.021Z,17.00
2023-04-13T17:49:55.599Z,16.90
2023-04-13T17:52:23.742Z,16.80
2023-04-13T17:54:51.957Z,16.70
2023-04-13T17:57:21.229Z,16.60
2023-04-13T17:59:49.283Z,16.50
2023-04-13T18:02:17.196Z,16.50
2023-04-13T18:04:45.249Z,16.30
2023-04-13T18:07:13.244Z,16.10
2023-04-13T18:09:41.541Z,16.00
2023-04-13T18:12:09.554Z,15.90
2023-04-13T18:14:38.926Z,15.70
2023-04-13T18:17:07.121Z,15.60
2023-04-13T18:19:35.007Z,15.50
2023-04-13T18:22:03.110Z,15.30
2023-04-13T18:24:31.142Z,15.20
2023-04-13T18:26:59.551Z,15.00
2023-04-13T18:29:27.493Z,14.90
2023-04-13T18:31:56.921Z,14.80
2023-04-13T18:34:24.895Z,14.60
2023-04-13T18:36:55.227Z,14.50
2023-04-13T18:39:23.488Z,14.40
2023-04-13T18:41:51.463Z,14.30
2023-04-13T18:44:19.299Z,14.10
2023-04-13T18:46:47.678Z,14.00
2023-04-13T18:49:16.964Z,13.90
2023-04-13T18:51:44.926Z,13.80
2023-04-13T18:54:13.070Z,13.70
2023-04-13T18:56:41.424Z,13.60
2023-04-13T18:59:09.593Z,13.50
2023-04-13T19:01:37.801Z,13.40
2023-04-13T19:04:06.044Z,13.30
2023-04-13T19:06:36.402Z,13.20
2023-04-13T19:09:04.781Z,13.10
2023-04-13T19:11:46.970Z,13.00
2023-04-13T19:14:15.032Z,12.90
2023-04-13T19:16:45.646Z,12.80
2023-04-13T19:19:15.655Z,12.70
2023-04-13T19:21:45.628Z,12.60
2023-04-13T19:24:14.036Z,12.50
2023-04-13T19:26:42.381Z,12.40
2023-04-13T19:29:12.708Z,12.40
2023-04-13T19:31:43.949Z,12.30
2023-04-13T19:34:13.125Z,12.20
2023-04-13T19:36:42.115Z,12.10
2023-04-13T19:39:11.694Z,12.00
2023-04-13T19:41:40.769Z,12.00
2023-04-13T19:44:09.403Z,11.90
2023-04-13T19:46:37.564Z,11.80
2023-04-13T19:49:05.650Z,11.70
2023-04-13T19:51:33.601Z,11.70
2023-04-13T19:54:03.045Z,11.60
2023-04-13T19:56:34.410Z,11.50
2023-04-13T19:59:03.134Z,11.50
2023-04-13T20:01:33.024Z,11.40
2023-04-13T20:04:02.244Z,11.40
2023-04-13T20:06:30.901Z,11.30
2023-04-13T20:09:09.006Z,11.30
2023-04-13T20:11:38.554Z,11.20
2023-04-13T20:14:06.435Z,11.10
2023-04-13T20:16:35.355Z,11.10
2023-04-13T20:19:03.655Z,11.00
2023-04-13T20:21:32.896Z,10.90
2023-04-13T20:24:01.132Z,10.90
2023-04-13T20:26:30.581Z,10.90
2023-04-13T20:29:00.958Z,10.80
2023-04-13T20:31:29.929Z,10.90
2023-04-13T20:33:58.407Z,10.80
2023-04-13T20:36:26.996Z,10.70
2023-04-13T20:38:59.698Z,10.70
2023-04-13T20:41:29.746Z,10.70
2023-04-13T20:43:59.618Z,10.60
2023-04-13T20:46:34.645Z,10.60
2023-04-13T20:49:05.141Z,10.50
2023-04-13T20:51:34.001Z,10.60
2023-04-13T20:54:05.275Z,10.50
2023-04-13T20:56:33.571Z,10.50
2023-04-13T20:59:03.082Z,10.50
2023-04-13T21:01:31.971Z,10.50
2023-04-13T21:04:00.111Z,10.40
2023-04-13T21:06:29.797Z,10.50
2023-04-13T21:08:59.189Z,10.50
2023-04-13T21:11:27.524Z,10.50
2023-04-13T21:13:55.924Z,10.50
2023-04-13T21:16:26.494Z,10.40
2023-04-13T21:18:54.876Z,10.40
2023-04-13T21:21:24.820Z,10.40
2023-04-13T21:23:53.742Z,10.40
2023-04-13T21:26:21.866Z,10.40
2023-04-13T21:28:49.734Z,10.30
2023-04-13T21:31:17.737Z,10.30
2023-04-13T21:33:47.103Z,10.20
2023-04-13T21:38:46.267Z,10.20
2023-04-13T21:41:17.697Z,10.10
2023-04-13T21:43:46.018Z,10.00
2023-04-13T21:46:15.648Z,10.10
2023-04-13T21:48:43.782Z,10.00
2023-04-13T21:51:13.122Z,9.90
2023-04-13T21:53:41.043Z,9.90
2023-04-13T21:56:09.103Z,9.80
2023-04-13T21:58:41.356Z,9.80
2023-04-13T22:01:10.005Z,9.70
2023-04-13T22:03:38.689Z,9.60
2023-04-13T22:06:09.329Z,9.60
2023-04-13T22:08:39.005Z,9.60
2023-04-13T22:11:07.650Z,9.50
2023-04-13T22:13:36.277Z,9.40
2023-04-13T22:16:04.427Z,9.40
2023-04-13T22:18:32.428Z,9.30
2023-04-13T22:21:00.770Z,9.30
2023-04-13T22:23:29.239Z,9.20
2023-04-13T22:26:01.343Z,9.20
2023-04-13T22:28:30.224Z,9.10
2023-04-13T22:30:58.537Z,9.10
2023-04-13T22:33:31.918Z,9.00
2023-04-13T22:35:59.879Z,9.00
2023-04-13T22:38:27.780Z,8.90
2023-04-13T22:40:55.770Z,8.90
2023-04-13T22:43:25.770Z,8.90
2023-04-13T22:46:00.604Z,8.80
2023-04-13T22:48:29.739Z,8.70
2023-04-13T22:50:58.409Z,8.70
2023-04-13T22:53:26.969Z,8.70
2023-04-13T22:55:55.206Z,8.60
2023-04-13T22:58:23.018Z,8.60
2023-04-13T23:00:52.577Z,8.50
2023-04-13T23:03:21.209Z,8.50
2023-04-13T23:05:49.733Z,8.50
2023-04-13T23:08:17.723Z,8.40
2023-04-13T23:10:45.826Z,8.40
2023-04-13T23:13:13.805Z,8.40
2023-04-13T23:15:41.691Z,8.30
2023-04-13T23:18:11.055Z,8.30
2023-04-13T23:20:38.990Z,8.30
2023-04-13T23:23:07.002Z,8.30
2023-04-13T23:25:35.001Z,8.30
2023-04-13T23:28:02.844Z,8.30
2023-04-13T23:30:30.847Z,8.30
2023-04-13T23:32:59.060Z,8.30
2023-04-13T23:35:28.292Z,8.30
2023-04-13T23:37:56.131Z,8.30
2023-04-13T23:40:23.951Z,8.30
2023-04-13T23:42:52.025Z,8.30
2023-04-13T23:45:20.053Z,8.30
2023-04-13T23:47:48.118Z,8.30
2023-04-13T23:50:17.859Z,8.30
2023-04-13T23:52:47.195Z,8.30
2023-04-13T23:55:15.590Z,8.30
2023-04-13T23:57:43.430Z,8.20
